aviador You're here:

KORF Decoded Metar

NORFOLK in VA, USA
Report Time2017-11-19 20:51:00
UTC Time2017-11-19 21:48:49
Flight Rules vfr VFR
Wind300° at 08 kt
W.Decomp.*RWY 32: 7.9 kt HW 1.5 kt LCW
RWY 23: 1.5 kt HW 7.9 kt RCW
W.Rank300° ranks 36
Current wind is above 300° avg. (6.3)
Visibility9999 m
Phenomena:N/A
Clouds:N/A
Expected CloudBase > 7,200 ft AGL from Temp-Dew spread
CeilingNone
Temp15°C (ISA 0)
Dew Point-3°C (29% RH)
AAT9.7°C
QNH1007 hPa
Density Alt331 ft
Elevation46 ft
Report Wrong Elevation
Raw Report
METAR KORF 192051Z 30008KT 260V340 10SM CLR 15/M03 A2975 RMK AO2 SLP072
T01501028 53013=

Extra information for KORF:More info

Metar Taf Metar & Taf Last 4 Metars F.Rules Stats Wind Profile Meteogram Temp Stats Airport Information Weather charts Add Link Nearby VenuesMetar ALERT Operation Metar Decoded Social comments

AIRNAV info for KORF